Caldwell, Texas
Current Conditions -  °F | °C
As of 3:10 PM on Tuesday 21 Oct 2014 (Local Time) from KRWV Reporting Station
Clear Clear  
Wind Chill: 27°   Ceiling: Unl
Heat Index: 27°   Visibility: 10mi
Dew Point:   Wind: 7mph
Humidity: 32%   Direction: 40°NE
Pressure: 30.04"   Gusts: NA
Location:  30.53°N, 96.69°W
Report Text: KRWV 212010Z AUTO 04006KT 10SM CLR 27/09 A3004 RMK AO2
Loading
Personal Weather Stations






























Interactive Weather Map
Tropical Storm Tracking
New forecast layout! Learn more

10-Day Weather Forecast

Advertisements
Track Severe Weather on mobile